WetterOnline ( https://www.wetteronline.ch )

Wetter aktuell Frankfurt am Main

Aktuelles Wetter: Offenbach (119m)

6-stündlich | Neueste Meldungen
Ortszeit Temperatur Wetter
Fr, 19.04. 8:00 4.6° C leichter Regen
Fr, 19.04. 2:00 5.9° C bedeckt
Do, 18.04. 20:00 11.0° C wolkig
Do, 18.04. 14:00 9.8° C bedeckt
Do, 18.04. 8:00 5.5° C bedeckt
Do, 18.04. 2:00 3.4° C bedeckt
Mi, 17.04. 20:00 7.5° C wolkig
Mi, 17.04. 14:00 10.1° C bedeckt
Ortszeit Temperatur Wetter
Fr, 19.04. 11:30 5.9° C leichter Regen
Fr, 19.04. 11:20 5.9° C leichter Regen
Fr, 19.04. 11:10 5.7° C leichter Regen
Fr, 19.04. 11:00 5.5° C leichter Regen
Fr, 19.04. 10:50 5.5° C leichter Regen
Fr, 19.04. 10:40 5.5° C leichter Regen
Fr, 19.04. 10:30 5.7° C leichter Regen
Fr, 19.04. 10:00 5.4° C leichter Regen
Fr, 19.04. 9:30 5.3° C leichter Regen
Fr, 19.04. 9:00 5.1° C leichter Regen
Fr, 19.04. 8:30 4.8° C leichter Regen
Ortszeit Relative Feuchte Sichtweite
Fr, 19.04. 8:00 85% 5.0 km
Fr, 19.04. 2:00 71% 45 km
Do, 18.04. 20:00 55% 50 km
Do, 18.04. 14:00 58% 55 km
Do, 18.04. 8:00 81% 35 km
Do, 18.04. 2:00 94% 28 km
Mi, 17.04. 20:00 72% 65 km
Mi, 17.04. 14:00 46% 50 km
Ortszeit Relative Feuchte Sichtweite
Fr, 19.04. 11:30 89% 13 km
Fr, 19.04. 11:20 89% -
Fr, 19.04. 11:10 88% -
Fr, 19.04. 11:00 89% 11 km
Fr, 19.04. 10:50 89% -
Fr, 19.04. 10:40 87% -
Fr, 19.04. 10:30 86% 16 km
Fr, 19.04. 10:00 86% 23 km
Fr, 19.04. 9:30 86% 20 km
Fr, 19.04. 9:00 85% 24 km
Fr, 19.04. 8:30 87% 23 km
Ortszeit Niederschlagsmenge Niederschlagsart
Fr, 19.04. 8:00 1 l/m2 in 12 Std. Regen
Fr, 19.04. 2:00 0.0 l/m2 in 6 Std. -
Do, 18.04. 20:00 0.2 l/m2 in 12 Std. Regen
Do, 18.04. 14:00 0.2 l/m2 in 6 Std. Regen
Do, 18.04. 8:00 0.1 l/m2 in 12 Std. Regen
Do, 18.04. 2:00 0.0 l/m2 in 6 Std. -
Mi, 17.04. 20:00 0.2 l/m2 in 12 Std. Regen
Mi, 17.04. 14:00 0.0 l/m2 in 6 Std. -
Ortszeit Niederschlagsmenge Niederschlagsart
Fr, 19.04. 11:30 0.5 l/m2 in 30 Min -
Fr, 19.04. 11:20 keine Meldung -
Fr, 19.04. 11:10 keine Meldung -
Fr, 19.04. 11:00 0.5 l/m2 in 1 Std. Regen
Fr, 19.04. 10:50 keine Meldung -
Fr, 19.04. 10:40 keine Meldung -
Fr, 19.04. 10:30 <0.05 l/m2 in 30 Min -
Fr, 19.04. 10:00 <0.05 l/m2 in 1 Std. Regen
Fr, 19.04. 9:30 <0.05 l/m2 in 30 Min -
Fr, 19.04. 9:00 0.5 l/m2 in 1 Std. Regen
Fr, 19.04. 8:30 0.4 l/m2 in 30 Min -
Ortszeit Stärke Spitze Richtung
km/h Bft. km/h Grad Sektor
Fr, 19.04. 8:00 19 3 48 240° SW
Fr, 19.04. 2:00 7 2 25 220° SW
Do, 18.04. 20:00 7 2 29 260° W
Do, 18.04. 14:00 7 2 25 50° NO
Do, 18.04. 8:00 6 1 15 10° N
Do, 18.04. 2:00 4 1 11 320° NW
Mi, 17.04. 20:00 4 1 29 20° N
Mi, 17.04. 14:00 9 2 28 300° NW
Ortszeit Stärke Spitze Richtung
km/h Bft. km/h Grad Sektor
Fr, 19.04. 11:30 15 3 31 220° SW
Fr, 19.04. 11:20 15 3 - 220° SW
Fr, 19.04. 11:10 17 3 - 220° SW
Fr, 19.04. 11:00 17 3 35 220° SW
Fr, 19.04. 10:50 17 3 - 220° SW
Fr, 19.04. 10:40 14 3 - 220° SW
Fr, 19.04. 10:30 14 3 32 220° SW
Fr, 19.04. 10:00 15 3 33 220° SW
Fr, 19.04. 9:30 17 3 33 220° SW
Fr, 19.04. 9:00 15 3 31 210° SW
Fr, 19.04. 8:30 11 2 32 220° SW
Ortszeit Untergrenze Bedeckung Gattung
total tief tief mittel hoch
Fr, 19.04. 8:00 570 m 8/8 8/8 - - -
Fr, 19.04. 2:00 2100 m 8/8 8/8 - - -
Do, 18.04. 20:00 1500 m 6/8 5/8 - - -
Do, 18.04. 14:00 1500 m 8/8 8/8 - - -
Do, 18.04. 8:00 600 m 8/8 8/8 - - -
Do, 18.04. 2:00 960 m 8/8 8/8 - - -
Mi, 17.04. 20:00 2100 m 8/8 2/8 - - -
Mi, 17.04. 14:00 1500 m 8/8 8/8 - - -
Ortszeit Bedeckungsgrad in Achtel und Wolkenuntergrenze
Fr, 19.04. 11:30 7(600m) 7(1140m)
Fr, 19.04. 11:20 7(600m) 7(1140m)
Fr, 19.04. 11:10 7
Fr, 19.04. 11:00 7(600m) 7(720m)
Fr, 19.04. 10:50 7(600m) 7(720m)
Fr, 19.04. 10:40 8
Fr, 19.04. 10:30 7(600m)
Fr, 19.04. 10:00 7(630m) 7(750m)
Fr, 19.04. 9:30 2(300m) 5(540m) 8(750m)
Fr, 19.04. 9:00 3(600m) 6(1140m) 7(1440m)
Fr, 19.04. 8:30 2(360m) 7(1110m) 8(1500m)
Ortszeit Luftdruck NN (hPa) Tendenz (hPa in 3 Std.)
Fr, 19.04. 8:00 1015 - 1,6
Fr, 19.04. 2:00 1019 - 0,7
Do, 18.04. 20:00 1019 + 0,7
Do, 18.04. 14:00 1018 + 0,8
Do, 18.04. 8:00 1016 + 2,0
Do, 18.04. 2:00 1013 + 1,0
Mi, 17.04. 20:00 1011 + 0,6
Mi, 17.04. 14:00 1011 - 0,3
Ortszeit Luftdruck NN (hPa) Tendenz (hPa in 3 Std.)
Fr, 19.04. 11:30 1011 - 3,2
Fr, 19.04. 11:20 1011 keine Meldung
Fr, 19.04. 11:10 1011 keine Meldung
Fr, 19.04. 11:00 1011 - 3,3
Fr, 19.04. 10:50 1011 keine Meldung
Fr, 19.04. 10:40 1011 keine Meldung
Fr, 19.04. 10:30 1012 - 3,3
Fr, 19.04. 10:00 1012 - 2,9
Fr, 19.04. 9:30 1013 - 2,4
Fr, 19.04. 9:00 1014 - 2,3
Fr, 19.04. 8:30 1014 - 1,7
Ortszeit Schneehöhe (cm)
Fr, 19.04. 8:00 -
Fr, 19.04. 2:00 -
Do, 18.04. 20:00 -
Do, 18.04. 14:00 -
Do, 18.04. 8:00 0
Do, 18.04. 2:00 0
Mi, 17.04. 20:00 0
Mi, 17.04. 14:00 0
Ortszeit Schneehöhe (cm)
Fr, 19.04. 11:30 -
Fr, 19.04. 11:20 -
Fr, 19.04. 11:10 -
Fr, 19.04. 11:00 -
Fr, 19.04. 10:50 -
Fr, 19.04. 10:40 -
Fr, 19.04. 10:30 -
Fr, 19.04. 10:00 -
Fr, 19.04. 9:30 -
Fr, 19.04. 9:00 -
Fr, 19.04. 8:30 -
Link zu dieser Seite / Seite empfehlen

Das Wetter in ...